Time;durP1;ratioP1;P1;durP2;ratioP2;P2;SDS_P1;SDS_P2;PMS_P1;PMS_P2;Temp;Humidity;BMP_temperature;BMP_pressure;BME280_temperature;BME280_humidity;BME280_pressure;Samples;Min_cycle;Max_cycle;Signal;HPM_P1;HPM_P2
2023/05/30 00:00:00;;;;;;;2.25;1.40;;;;;;;20.76;49.76;102612.00;5005404;28;20120;-55
2023/05/30 00:02:25;;;;;;;2.80;1.35;;;;;;;20.77;49.78;102608.28;5006842;28;20026;-55
2023/05/30 00:04:51;;;;;;;3.97;1.45;;;;;;;20.75;49.87;102612.97;5004440;28;20427;-55
2023/05/30 00:07:17;;;;;;;2.17;1.13;;;;;;;20.75;49.68;102615.69;5006272;28;20049;-55
2023/05/30 00:09:43;;;;;;;1.92;1.27;;;;;;;20.75;49.89;102615.69;5013179;28;20037;-55
2023/05/30 00:12:11;;;;;;;2.05;1.15;;;;;;;20.75;49.86;102626.50;5009205;28;20484;-55
2023/05/30 00:14:36;;;;;;;3.83;1.17;;;;;;;20.74;50.02;102622.94;5004378;28;20037;-55
2023/05/30 00:17:02;;;;;;;2.22;1.20;;;;;;;20.74;49.88;102622.94;5004169;28;20030;-55
2023/05/30 00:19:28;;;;;;;2.10;1.10;;;;;;;20.74;49.89;102622.09;5005694;28;20615;-56
2023/05/30 00:21:54;;;;;;;3.22;1.55;;;;;;;20.74;49.64;102624.81;5014135;28;20033;-55
2023/05/30 00:24:20;;;;;;;2.80;1.10;;;;;;;20.74;49.80;102619.38;5009408;28;20027;-55
2023/05/30 00:26:46;;;;;;;2.30;1.17;;;;;;;20.73;50.02;102621.22;5011773;28;20041;-55
2023/05/30 00:29:11;;;;;;;1.33;0.90;;;;;;;20.73;49.56;102620.34;5008034;28;20503;-55
2023/05/30 00:31:37;;;;;;;2.03;1.08;;;;;;;20.72;49.88;102624.06;5005237;28;20037;-55
2023/05/30 00:34:02;;;;;;;2.55;1.10;;;;;;;20.72;49.85;102626.78;5009584;28;20030;-55
2023/05/30 00:36:28;;;;;;;3.22;1.38;;;;;;;20.72;50.01;102624.06;5008634;28;20046;-55
2023/05/30 00:38:53;;;;;;;2.25;1.13;;;;;;;20.70;49.51;102627.75;5009073;28;20039;-56
2023/05/30 00:41:18;;;;;;;2.88;1.30;;;;;;;20.71;49.63;102625.88;5010605;28;20034;-55
2023/05/30 00:43:44;;;;;;;1.92;1.35;;;;;;;20.69;49.38;102623.31;5008666;28;20067;-55
2023/05/30 00:46:12;;;;;;;2.20;1.13;;;;;;;20.69;49.74;102634.16;5010380;28;20621;-55
2023/05/30 00:48:38;;;;;;;3.60;1.38;;;;;;;20.70;49.60;102624.19;5012710;28;20030;-55
2023/05/30 00:51:06;;;;;;;1.98;1.13;;;;;;;20.69;49.85;102626.03;5007206;28;20037;-55
2023/05/30 00:53:32;;;;;;;2.35;1.38;;;;;;;20.68;49.90;102631.56;5008458;28;20088;-55
2023/05/30 00:55:57;;;;;;;4.00;1.20;;;;;;;20.68;49.62;102632.41;5007831;28;20485;-56
2023/05/30 00:58:23;;;;;;;2.35;1.25;;;;;;;20.68;49.92;102636.97;5008174;28;20088;-55
2023/05/30 01:00:48;;;;;;;3.17;1.25;;;;;;;20.66;49.59;102639.78;5009928;28;20038;-55
2023/05/30 01:03:15;;;;;;;1.00;0.90;;;;;;;20.67;49.55;102638.78;5008877;28;20040;-55
2023/05/30 01:05:42;;;;;;;1.63;1.00;;;;;;;20.67;49.42;102640.66;5007250;28;20065;-55
2023/05/30 01:08:08;;;;;;;2.58;0.82;;;;;;;20.66;49.86;102633.53;5004638;28;20026;-55
2023/05/30 01:10:33;;;;;;;2.80;1.08;;;;;;;20.66;49.82;102633.53;5006882;28;20030;-55
2023/05/30 01:14:00;;;;;;;3.08;1.20;;;;;;;20.69;49.61;102634.16;5008060;28;20026;-55
2023/05/30 01:16:32;;;;;;;2.53;1.25;;;;;;;20.66;49.25;102630.81;4981538;28;20046;-55
2023/05/30 01:19:08;;;;;;;;;;;;;;;20.76;49.63;102626.41;5009242;28;20582;-56
2023/05/30 01:21:36;;;;;;;3.40;1.23;;;;;;;20.65;49.79;102624.53;5008107;28;20287;-55
2023/05/30 01:24:19;;;;;;;2.35;1.08;;;;;;;20.65;49.51;102623.66;5012189;28;20128;-55
2023/05/30 01:27:21;;;;;;;2.28;1.08;;;;;;;20.66;49.57;102623.56;5009185;28;20076;-56
2023/05/30 01:29:47;;;;;;;1.85;1.27;;;;;;;20.62;49.80;102627.50;5007852;28;20476;-53
2023/05/30 01:32:14;;;;;;;4.55;1.60;;;;;;;20.61;49.16;102620.34;5006628;28;20156;-53
2023/05/30 01:34:39;;;;;;;2.25;1.10;;;;;;;20.60;49.66;102626.75;5006114;28;20043;-53
2023/05/30 01:37:05;;;;;;;2.10;1.08;;;;;;;20.60;49.54;102621.34;5007660;28;20049;-53
2023/05/30 01:39:31;;;;;;;2.75;1.10;;;;;;;20.60;49.52;102624.03;5007840;28;20045;-54
2023/05/30 01:42:26;;;;;;;3.00;1.00;;;;;;;20.63;49.46;102629.19;5005780;28;20061;-53
2023/05/30 01:45:04;;;;;;;1.77;1.20;;;;;;;20.61;49.47;102635.72;5007183;28;20162;-53
2023/05/30 01:47:39;;;;;;;2.40;1.20;;;;;;;20.59;49.36;102638.50;5023190;28;20129;-53
2023/05/30 01:50:10;;;;;;;3.47;1.20;;;;;;;20.58;49.42;102628.69;5011835;28;20083;-53
2023/05/30 01:52:40;;;;;;;1.25;0.68;;;;;;;20.59;49.30;102643.06;5006383;28;20396;-53
2023/05/30 01:55:08;;;;;;;2.05;1.10;;;;;;;20.57;49.36;102640.47;5006220;28;20485;-53
2023/05/30 01:57:43;;;;;;;1.63;1.10;;;;;;;20.57;49.31;102651.31;5007284;28;20041;-54
2023/05/30 02:00:10;;;;;;;2.40;1.08;;;;;;;20.56;49.30;102649.59;5007100;28;20116;-53
2023/05/30 02:02:36;;;;;;;1.98;0.93;;;;;;;20.56;49.01;102649.59;5006617;28;20037;-53
2023/05/30 02:05:01;;;;;;;3.22;1.10;;;;;;;20.56;49.44;102652.31;5008753;28;20068;-53
2023/05/30 02:07:27;;;;;;;1.83;0.90;;;;;;;20.57;49.47;102655.88;5006112;28;20035;-54
2023/05/30 02:09:52;;;;;;;1.85;1.10;;;;;;;20.54;49.17;102651.53;5006585;28;20484;-53
2023/05/30 02:12:18;;;;;;;1.85;1.08;;;;;;;20.54;49.44;102654.22;5007879;28;20045;-54
2023/05/30 02:14:43;;;;;;;3.55;1.05;;;;;;;20.55;48.97;102658.69;5007812;28;20057;-53
2023/05/30 02:17:09;;;;;;;1.98;1.23;;;;;;;20.54;48.99;102661.50;5008229;28;20502;-53
2023/05/30 02:19:34;;;;;;;2.28;1.20;;;;;;;20.54;49.20;102661.50;5007079;28;20388;-53
2023/05/30 02:21:59;;;;;;;3.55;1.17;;;;;;;20.53;49.06;102663.34;5006916;28;20038;-53
2023/05/30 02:24:25;;;;;;;2.65;1.00;;;;;;;20.54;49.13;102659.66;5014140;28;20041;-53
2023/05/30 02:26:50;;;;;;;2.75;1.00;;;;;;;20.53;48.89;102659.78;5010980;28;20030;-53
2023/05/30 02:29:15;;;;;;;2.65;1.15;;;;;;;20.53;48.86;102660.66;5005350;28;20664;-53
2023/05/30 02:31:41;;;;;;;1.42;0.90;;;;;;;20.51;49.07;102657.19;5005437;28;20489;-54
2023/05/30 02:34:06;;;;;;;2.47;1.10;;;;;;;20.52;49.07;102658.91;5006565;28;20038;-53
2023/05/30 02:36:32;;;;;;;2.55;1.20;;;;;;;20.51;48.95;102659.91;5005897;28;20078;-53
2023/05/30 02:38:59;;;;;;;1.17;0.88;;;;;;;20.50;48.82;102656.34;5006966;28;20517;-53
2023/05/30 02:41:24;;;;;;;4.50;1.20;;;;;;;20.51;48.85;102657.19;5005276;28;20034;-53
2023/05/30 02:43:50;;;;;;;3.97;1.30;;;;;;;20.49;49.17;102660.03;5005040;28;20034;-53
2023/05/30 02:46:15;;;;;;;2.92;1.10;;;;;;;20.50;49.13;102663.56;5007996;28;20031;-53
2023/05/30 02:48:40;;;;;;;1.88;0.75;;;;;;;20.50;48.91;102663.56;5006374;28;20061;-54
2023/05/30 02:51:06;;;;;;;2.92;1.00;;;;;;;20.48;48.92;102663.69;5007528;28;20119;-53
2023/05/30 02:53:31;;;;;;;3.78;1.27;;;;;;;20.49;48.79;102664.56;5007352;28;20032;-53
2023/05/30 02:55:57;;;;;;;1.65;0.98;;;;;;;20.48;48.59;102658.28;5007020;28;20124;-53
2023/05/30 02:58:22;;;;;;;3.00;1.10;;;;;;;20.47;48.56;102653.88;5005744;28;20368;-53
2023/05/30 03:00:48;;;;;;;2.22;0.90;;;;;;;20.46;49.04;102654.81;5010029;28;20046;-53
2023/05/30 03:03:14;;;;;;;1.50;0.88;;;;;;;20.45;48.90;102654.97;5005272;28;20493;-53
2023/05/30 03:05:39;;;;;;;3.53;1.17;;;;;;;20.46;48.60;102659.38;5004184;28;20038;-53
2023/05/30 03:08:05;;;;;;;3.70;1.05;;;;;;;20.46;48.92;102654.81;5005228;28;20037;-53
2023/05/30 03:10:30;;;;;;;2.35;1.00;;;;;;;20.46;48.40;102645.84;5004981;28;20393;-54
2023/05/30 03:12:56;;;;;;;2.92;1.08;;;;;;;20.45;48.82;102655.81;5007111;28;20038;-53
2023/05/30 03:15:21;;;;;;;1.63;0.80;;;;;;;20.44;48.54;102654.09;5006156;28;20139;-53
2023/05/30 03:17:47;;;;;;;2.85;1.40;;;;;;;20.43;48.82;102654.22;5005235;28;20026;-53
2023/05/30 03:20:13;;;;;;;2.33;1.10;;;;;;;20.43;48.69;102670.47;5002246;28;20038;-53
2023/05/30 03:22:38;;;;;;;4.15;1.10;;;;;;;20.43;48.62;102670.47;5012232;28;20030;-53
2023/05/30 03:25:05;;;;;;;1.92;1.15;;;;;;;20.42;48.65;102671.44;5010217;28;20575;-53
2023/05/30 03:27:30;;;;;;;1.92;1.20;;;;;;;20.42;48.44;102671.44;5004144;28;20427;-53
2023/05/30 03:29:56;;;;;;;1.73;0.90;;;;;;;20.42;48.02;102674.13;5007453;28;20031;-53
2023/05/30 03:32:21;;;;;;;2.45;1.38;;;;;;;20.41;48.59;102676.00;5006233;28;20534;-53
2023/05/30 03:34:47;;;;;;;3.72;1.10;;;;;;;20.41;48.50;102680.53;5005952;28;20060;-53
2023/05/30 03:37:12;;;;;;;1.52;0.88;;;;;;;20.41;48.68;102676.00;5005169;28;20080;-53
2023/05/30 03:39:38;;;;;;;2.47;1.02;;;;;;;20.40;48.21;102682.38;5004983;28;20034;-53
2023/05/30 03:42:04;;;;;;;2.75;1.17;;;;;;;20.40;48.38;102681.50;5009286;28;20464;-54
2023/05/30 03:44:29;;;;;;;2.00;0.90;;;;;;;20.40;48.26;102681.50;5009188;28;20121;-53
2023/05/30 03:46:55;;;;;;;2.80;1.20;;;;;;;20.40;48.50;102692.34;5004349;28;20032;-54
2023/05/30 03:49:20;;;;;;;2.50;1.17;;;;;;;20.40;48.31;102695.03;5005721;28;20038;-53
2023/05/30 03:51:46;;;;;;;2.67;1.23;;;;;;;20.39;48.64;102698.72;5005468;28;20036;-53
2023/05/30 03:54:11;;;;;;;3.10;1.08;;;;;;;20.38;48.41;102695.16;5008420;28;20034;-53
2023/05/30 03:56:36;;;;;;;2.55;1.25;;;;;;;20.39;48.27;102698.72;5007581;28;20051;-53
2023/05/30 03:59:02;;;;;;;3.92;1.30;;;;;;;20.38;48.17;102695.16;5009985;28;20042;-54
2023/05/30 04:01:28;;;;;;;2.53;1.00;;;;;;;20.37;48.27;102695.25;5008255;28;20034;-53
2023/05/30 04:03:54;;;;;;;1.35;1.00;;;;;;;20.36;48.49;102698.97;5009389;28;20045;-53
2023/05/30 04:06:19;;;;;;;2.83;1.00;;;;;;;20.37;48.23;102698.84;5009146;28;20026;-53
2023/05/30 04:08:44;;;;;;;2.67;1.23;;;;;;;20.38;48.07;102697.84;5010674;28;20077;-53
2023/05/30 04:11:10;;;;;;;1.52;0.88;;;;;;;20.37;48.41;102700.69;5015947;28;20394;-53
2023/05/30 04:13:35;;;;;;;1.92;0.80;;;;;;;20.37;48.10;102695.25;5008521;28;20071;-54
2023/05/30 04:16:01;;;;;;;3.42;1.20;;;;;;;20.36;47.96;102696.25;5013321;28;20030;-54
2023/05/30 04:18:27;;;;;;;2.70;1.20;;;;;;;20.36;48.34;102696.25;5008127;28;20128;-53
2023/05/30 04:20:52;;;;;;;4.50;1.52;;;;;;;20.37;48.59;102697.97;5007357;28;20110;-53
2023/05/30 04:23:18;;;;;;;1.58;0.88;;;;;;;20.35;48.44;102695.38;5009961;28;20093;-54
2023/05/30 04:25:44;;;;;;;1.73;0.90;;;;;;;20.35;48.44;102697.22;5005706;28;20034;-53
2023/05/30 04:28:12;;;;;;;2.58;1.20;;;;;;;20.33;48.23;102696.47;5008717;28;20384;-53
2023/05/30 04:30:38;;;;;;;3.03;1.00;;;;;;;20.35;48.24;102694.53;5009246;28;20034;-53
2023/05/30 04:33:04;;;;;;;1.85;1.17;;;;;;;20.34;48.28;102695.53;5008421;28;20141;-54
2023/05/30 04:35:30;;;;;;;2.17;1.10;;;;;;;20.35;48.13;102699.94;5006481;28;20032;-53
2023/05/30 04:37:56;;;;;;;2.08;1.00;;;;;;;20.34;48.44;102706.34;5010336;28;20408;-53
2023/05/30 04:40:22;;;;;;;2.00;1.33;;;;;;;20.34;48.31;102703.63;5008546;28;20042;-53
2023/05/30 04:42:51;;;;;;;1.88;1.08;;;;;;;20.34;48.30;102698.22;5009072;28;20523;-54
2023/05/30 04:45:18;;;;;;;3.03;1.08;;;;;;;20.33;48.14;102696.47;5009711;28;20029;-53
2023/05/30 04:47:47;;;;;;;2.50;1.17;;;;;;;20.31;48.45;102697.47;5014103;28;20392;-53
2023/05/30 04:50:16;;;;;;;3.03;1.15;;;;;;;20.32;48.50;102695.63;5008875;28;20036;-53
2023/05/30 04:52:42;;;;;;;3.00;1.08;;;;;;;20.31;48.50;102696.59;5010278;28;20034;-53
2023/05/30 04:55:09;;;;;;;2.28;1.00;;;;;;;20.31;48.48;102696.59;5005780;28;20108;-54
2023/05/30 04:57:36;;;;;;;1.85;0.98;;;;;;;20.31;48.21;102700.19;5007775;28;20038;-53
2023/05/30 05:00:02;;;;;;;3.05;1.05;;;;;;;20.30;48.37;102693.03;5009442;28;20045;-53
2023/05/30 05:02:28;;;;;;;1.92;1.10;;;;;;;20.30;48.16;102694.88;5008529;28;20038;-53
2023/05/30 05:04:53;;;;;;;3.28;1.15;;;;;;;20.31;47.95;102696.59;5008147;28;20400;-53
2023/05/30 05:07:19;;;;;;;1.40;0.85;;;;;;;20.31;48.13;102697.47;5007200;28;20065;-53
2023/05/30 05:09:45;;;;;;;1.45;0.90;;;;;;;20.29;48.02;102694.00;5006530;28;20037;-53
2023/05/30 05:12:11;;;;;;;1.65;1.00;;;;;;;20.29;47.90;102701.25;5014215;28;20038;-53
2023/05/30 05:14:37;;;;;;;2.80;1.17;;;;;;;20.28;48.45;102694.13;5010917;28;20404;-53
2023/05/30 05:17:02;;;;;;;2.13;1.10;;;;;;;20.28;48.25;102689.59;5009034;28;20042;-53
2023/05/30 05:19:27;;;;;;;2.03;0.85;;;;;;;20.29;48.14;102687.72;5009181;28;20034;-53
2023/05/30 05:21:53;;;;;;;1.73;1.20;;;;;;;20.28;48.32;102696.84;5011485;28;20462;-53
2023/05/30 05:24:18;;;;;;;2.80;1.00;;;;;;;20.30;48.01;102697.59;5008409;28;20041;-54
2023/05/30 05:26:43;;;;;;;3.08;1.15;;;;;;;20.28;48.33;102695.00;5010555;28;20042;-53
2023/05/30 05:29:09;;;;;;;2.65;0.90;;;;;;;20.27;48.40;102690.53;5012906;28;20121;-54
2023/05/30 05:31:34;;;;;;;1.77;1.10;;;;;;;20.28;48.46;102694.13;5009996;28;20034;-54
2023/05/30 05:34:00;;;;;;;1.95;1.00;;;;;;;20.27;48.21;102698.66;5008439;28;20034;-53
2023/05/30 05:36:25;;;;;;;4.22;1.30;;;;;;;20.28;48.35;102699.56;5007017;28;20563;-53
2023/05/30 05:38:50;;;;;;;2.22;1.00;;;;;;;20.28;48.48;102696.84;5008260;28;20034;-53
2023/05/30 05:41:16;;;;;;;2.45;1.20;;;;;;;20.27;48.45;102695.97;5007894;28;20034;-53
2023/05/30 05:43:41;;;;;;;1.80;1.13;;;;;;;20.26;48.55;102688.84;5007087;28;20384;-54
2023/05/30 05:46:07;;;;;;;2.83;1.10;;;;;;;20.27;48.54;102698.66;5005619;28;20030;-53
2023/05/30 05:48:32;;;;;;;1.85;0.85;;;;;;;20.26;48.22;102696.09;5010401;28;20041;-53
2023/05/30 05:50:58;;;;;;;2.15;0.90;;;;;;;20.25;48.43;102692.50;5006165;28;20070;-53
2023/05/30 05:53:23;;;;;;;1.02;0.80;;;;;;;20.26;48.54;102701.50;5007266;28;20034;-53
2023/05/30 05:55:49;;;;;;;1.80;0.90;;;;;;;20.26;48.67;102696.09;5008170;28;20022;-53
2023/05/30 05:58:14;;;;;;;1.30;0.90;;;;;;;20.25;48.33;102700.63;5007765;28;20068;-53
2023/05/30 06:00:40;;;;;;;3.83;1.38;;;;;;;20.24;48.47;102704.31;5010163;28;20108;-53
2023/05/30 06:03:05;;;;;;;2.67;1.00;;;;;;;20.26;48.54;102717.75;5007533;28;20518;-53
2023/05/30 06:05:30;;;;;;;2.45;1.13;;;;;;;20.25;48.31;102710.59;5006767;28;20084;-54
2023/05/30 06:07:57;;;;;;;2.33;1.15;;;;;;;20.24;48.49;102715.16;5008433;28;20037;-53
2023/05/30 06:10:23;;;;;;;2.03;1.13;;;;;;;20.23;48.73;102704.44;5006140;28;20026;-53
2023/05/30 06:12:49;;;;;;;1.27;0.90;;;;;;;20.23;48.49;102701.72;5005308;28;20376;-55
2023/05/30 06:15:14;;;;;;;2.92;0.93;;;;;;;20.24;48.44;102709.75;5004946;28;20041;-55
2023/05/30 06:17:40;;;;;;;1.05;0.88;;;;;;;20.23;48.49;102699.88;5009568;28;20046;-56
2023/05/30 06:20:06;;;;;;;1.58;1.02;;;;;;;20.24;48.52;102704.31;5006839;28;20096;-55
2023/05/30 06:22:31;;;;;;;3.13;1.00;;;;;;;20.23;48.57;102708.00;5006198;28;20042;-55
2023/05/30 06:24:57;;;;;;;1.30;1.10;;;;;;;20.23;48.37;102707.13;5010282;28;20028;-55
2023/05/30 06:27:22;;;;;;;1.77;1.25;;;;;;;20.24;48.42;102703.47;5005163;28;20042;-56
2023/05/30 06:29:47;;;;;;;2.47;1.10;;;;;;;20.23;48.48;102702.59;5012622;28;20037;-56
2023/05/30 06:32:13;;;;;;;5.82;1.30;;;;;;;20.24;48.41;102704.31;5005532;28;20034;-56
2023/05/30 06:34:38;;;;;;;2.15;1.15;;;;;;;20.22;48.31;102703.59;5013223;28;20084;-56
2023/05/30 06:37:04;;;;;;;2.88;1.23;;;;;;;20.24;48.57;102706.19;5011823;28;20049;-56
2023/05/30 06:39:30;;;;;;;3.35;1.00;;;;;;;20.23;48.46;102716.13;5013715;28;20049;-55
2023/05/30 06:41:56;;;;;;;4.35;1.35;;;;;;;20.22;48.56;102706.28;5010439;28;20065;-55
2023/05/30 06:44:21;;;;;;;2.92;1.45;;;;;;;20.23;48.71;102712.56;5005414;28;20065;-55
2023/05/30 06:46:46;;;;;;;1.30;1.00;;;;;;;20.24;48.60;102706.19;5004779;28;20026;-55
2023/05/30 06:49:12;;;;;;;1.92;1.00;;;;;;;20.25;48.56;102702.47;5005881;28;20041;-55
2023/05/30 06:51:37;;;;;;;3.28;1.10;;;;;;;20.24;48.63;102706.19;5005874;28;20042;-55
2023/05/30 06:54:03;;;;;;;1.98;0.95;;;;;;;20.25;48.54;102710.59;5006267;28;20396;-56
2023/05/30 06:56:28;;;;;;;1.30;1.20;;;;;;;20.23;48.69;102718.81;5006738;28;20054;-56
2023/05/30 06:58:55;;;;;;;3.72;1.27;;;;;;;20.24;48.59;102714.28;5006302;28;20029;-55
2023/05/30 07:01:20;;;;;;;1.73;1.00;;;;;;;20.24;48.75;102717.84;5004714;28;20084;-55
2023/05/30 07:03:46;;;;;;;2.13;0.90;;;;;;;20.23;48.88;102718.81;5010043;28;20586;-55
2023/05/30 07:06:12;;;;;;;1.17;1.10;;;;;;;20.24;48.67;102725.13;5004766;28;20037;-56
2023/05/30 07:08:37;;;;;;;2.17;1.30;;;;;;;20.24;48.61;102720.56;5005637;28;20042;-55
2023/05/30 07:11:03;;;;;;;1.85;1.23;;;;;;;20.24;48.71;102731.38;5007070;28;20487;-56
2023/05/30 07:13:28;;;;;;;2.67;1.00;;;;;;;20.24;48.43;102725.97;5006447;28;20037;-56
2023/05/30 07:15:53;;;;;;;1.77;1.42;;;;;;;20.24;49.16;102723.25;5005631;28;20090;-55
2023/05/30 07:18:19;;;;;;;2.55;1.13;;;;;;;20.26;48.92;102728.56;5005766;28;20072;-55
2023/05/30 07:20:44;;;;;;;2.10;1.20;;;;;;;20.26;48.35;102728.56;5005649;28;20036;-56
2023/05/30 07:23:10;;;;;;;3.05;1.27;;;;;;;20.24;48.88;102725.97;5007653;28;20099;-56
2023/05/30 07:25:35;;;;;;;2.38;1.23;;;;;;;20.26;48.66;102723.16;5010653;28;20040;-55
2023/05/30 07:28:00;;;;;;;2.72;1.25;;;;;;;20.27;48.79;102722.16;5010637;28;20030;-56
2023/05/30 07:30:26;;;;;;;3.78;1.40;;;;;;;20.27;49.02;102735.69;5011886;28;20029;-55
2023/05/30 07:32:51;;;;;;;4.05;1.58;;;;;;;20.26;49.07;102742.94;5010291;28;20025;-55
2023/05/30 07:35:17;;;;;;;3.60;1.52;;;;;;;20.26;48.81;102731.25;5009012;28;20476;-56
2023/05/30 07:37:43;;;;;;;3.28;1.60;;;;;;;20.27;48.86;102739.25;5005388;28;20424;-55
2023/05/30 07:40:09;;;;;;;3.25;1.75;;;;;;;20.27;48.57;102735.69;5006715;28;20050;-55
2023/05/30 07:42:36;;;;;;;3.60;1.88;;;;;;;20.27;49.15;102746.50;5004998;28;20117;-55
2023/05/30 07:45:02;;;;;;;4.97;1.77;;;;;;;20.26;48.98;102734.81;5005628;28;20041;-56
2023/05/30 07:47:28;;;;;;;3.13;1.60;;;;;;;20.27;48.53;102743.78;5009288;28;20034;-55
2023/05/30 07:49:54;;;;;;;3.47;1.50;;;;;;;20.26;48.98;102742.94;5005635;28;20472;-55
2023/05/30 07:52:19;;;;;;;2.42;1.30;;;;;;;20.26;48.76;102732.13;5006010;28;20041;-55
2023/05/30 07:54:44;;;;;;;3.13;1.70;;;;;;;20.27;48.88;102738.38;5005912;28;20033;-55
2023/05/30 07:57:12;;;;;;;4.95;1.63;;;;;;;20.27;48.74;102749.22;5007112;28;20026;-55
2023/05/30 07:59:40;;;;;;;5.13;1.70;;;;;;;20.27;49.17;102738.38;5006811;28;20117;-55
2023/05/30 08:02:06;;;;;;;2.70;1.48;;;;;;;20.26;49.02;102729.41;5007974;28;20044;-55
2023/05/30 08:04:31;;;;;;;3.63;1.80;;;;;;;20.26;48.59;102718.59;5007906;28;20034;-55
2023/05/30 08:06:56;;;;;;;3.13;1.67;;;;;;;20.26;48.77;102723.16;5004315;28;20117;-56
2023/05/30 08:09:22;;;;;;;2.85;1.75;;;;;;;20.27;49.09;102725.72;5003852;28;20041;-55
2023/05/30 08:11:47;;;;;;;2.33;1.55;;;;;;;20.26;48.61;102728.56;5005335;28;20041;-55
2023/05/30 08:14:13;;;;;;;2.55;1.63;;;;;;;20.27;48.89;102724.84;5002611;28;20030;-55
2023/05/30 08:16:39;;;;;;;2.53;1.52;;;;;;;20.26;48.63;102724.00;5002922;28;20416;-55
2023/05/30 08:19:04;;;;;;;2.92;1.83;;;;;;;20.26;49.03;102717.75;5002857;28;20477;-55
2023/05/30 08:21:31;;;;;;;3.65;1.40;;;;;;;20.27;48.86;102711.34;5008307;28;20030;-56
2023/05/30 08:23:57;;;;;;;3.05;1.52;;;;;;;20.26;48.92;102713.19;5007083;28;20038;-55
2023/05/30 08:26:24;;;;;;;3.53;1.80;;;;;;;20.26;48.91;102715.03;5009574;28;20061;-55
2023/05/30 08:28:51;;;;;;;2.30;1.52;;;;;;;20.26;49.01;102718.59;5011792;28;20471;-55
2023/05/30 08:31:18;;;;;;;3.75;1.45;;;;;;;20.27;48.93;102711.34;5005216;28;20109;-56
2023/05/30 08:33:44;;;;;;;2.28;1.67;;;;;;;20.27;49.08;102714.03;5006836;28;20042;-55
2023/05/30 08:36:09;;;;;;;4.15;1.40;;;;;;;20.27;48.67;102712.19;5005348;28;20140;-55
2023/05/30 08:38:34;;;;;;;1.98;1.30;;;;;;;20.28;48.90;102708.53;5008799;28;20073;-55
2023/05/30 08:41:00;;;;;;;4.32;1.67;;;;;;;20.27;49.09;102704.06;5008513;28;20495;-55
2023/05/30 08:43:25;;;;;;;2.47;1.42;;;;;;;20.28;48.72;102710.38;5008126;28;20057;-55
2023/05/30 08:45:53;;;;;;;2.10;1.48;;;;;;;20.27;49.07;102703.22;5008578;28;20041;-55
2023/05/30 08:48:19;;;;;;;2.63;1.25;;;;;;;20.27;48.96;102706.78;5008291;28;20032;-55
2023/05/30 08:50:45;;;;;;;3.38;1.33;;;;;;;20.28;49.17;102704.97;5008632;28;20050;-56
2023/05/30 08:53:17;;;;;;;3.97;1.70;;;;;;;20.27;49.08;102698.66;5009756;28;20444;-55
2023/05/30 08:55:44;;;;;;;3.17;1.48;;;;;;;20.27;48.98;102698.66;5008608;28;20044;-55
2023/05/30 08:58:20;;;;;;;4.00;1.42;;;;;;;20.27;49.28;102690.53;5011500;28;20084;-55
2023/05/30 09:00:48;;;;;;;3.50;1.45;;;;;;;20.27;48.85;102695.97;5011636;28;20057;-55
2023/05/30 09:03:15;;;;;;;2.70;1.40;;;;;;;20.27;48.73;102693.25;5009123;28;20045;-55
2023/05/30 09:05:42;;;;;;;3.20;1.70;;;;;;;20.27;48.95;102692.41;5011005;28;20066;-55
2023/05/30 09:08:08;;;;;;;1.90;1.30;;;;;;;20.27;49.13;102693.25;5007899;28;20026;-55
2023/05/30 09:10:41;;;;;;;3.05;1.58;;;;;;;20.26;49.10;102694.25;5008328;28;20084;-55
2023/05/30 09:13:06;;;;;;;2.65;1.55;;;;;;;20.27;48.90;102684.28;5008636;28;20038;-55
2023/05/30 09:15:32;;;;;;;2.97;1.65;;;;;;;20.28;49.07;102695.00;5007768;28;20060;-55
2023/05/30 09:17:57;;;;;;;2.60;1.52;;;;;;;20.27;49.10;102685.13;5010396;28;20034;-55
2023/05/30 09:20:22;;;;;;;4.50;1.60;;;;;;;20.28;49.19;102686.03;5005824;28;20042;-55
2023/05/30 09:22:48;;;;;;;2.33;1.50;;;;;;;20.28;49.21;102683.31;5010511;28;20174;-55
2023/05/30 09:25:15;;;;;;;1.73;1.30;;;;;;;20.28;48.91;102678.75;5011148;28;20492;-55
2023/05/30 09:27:45;;;;;;;4.20;1.50;;;;;;;20.28;49.03;102680.63;5008670;28;20026;-55
2023/05/30 09:30:12;;;;;;;2.60;1.40;;;;;;;20.28;49.04;102680.63;5007728;28;20117;-56
2023/05/30 09:32:38;;;;;;;2.55;1.33;;;;;;;20.27;49.15;102677.03;5009112;28;20062;-56
2023/05/30 09:35:12;;;;;;;3.47;1.55;;;;;;;20.28;49.33;102667.94;5009159;28;20065;-55
2023/05/30 09:37:43;;;;;;;2.70;1.42;;;;;;;20.28;49.03;102669.78;5008554;28;20054;-55
2023/05/30 09:40:11;;;;;;;2.28;1.77;;;;;;;20.29;49.25;102671.50;5009116;28;20021;-55
2023/05/30 09:42:44;;;;;;;5.35;1.85;;;;;;;20.30;49.02;102676.81;5008368;28;20036;-55
2023/05/30 09:45:15;;;;;;;4.13;1.50;;;;;;;20.28;49.20;102667.09;5006876;28;20436;-55
2023/05/30 09:47:42;;;;;;;2.15;1.60;;;;;;;20.29;49.04;102669.66;5008338;28;20026;-55
2023/05/30 09:50:09;;;;;;;3.17;1.45;;;;;;;20.28;49.15;102665.25;5007907;28;20030;-56
2023/05/30 09:52:36;;;;;;;2.55;1.70;;;;;;;20.29;49.37;102660.69;5009125;28;20044;-56
2023/05/30 09:55:06;;;;;;;2.17;1.55;;;;;;;20.29;49.31;102658.84;5011016;28;20105;-55
2023/05/30 09:57:46;;;;;;;3.88;1.83;;;;;;;20.33;49.20;102669.44;5006957;28;20026;-55
2023/05/30 10:00:15;;;;;;;4.05;1.75;;;;;;;20.30;49.17;102665.97;5011246;28;20087;-55
2023/05/30 10:02:51;;;;;;;2.33;1.90;;;;;;;20.30;49.32;102657.88;5009360;28;20025;-55
2023/05/30 10:05:22;;;;;;;2.70;1.70;;;;;;;20.30;49.33;102660.56;5007847;28;20104;-55
2023/05/30 10:07:49;;;;;;;3.38;1.60;;;;;;;20.31;49.51;102653.31;5007471;28;20032;-55
2023/05/30 10:10:15;;;;;;;2.35;1.40;;;;;;;20.30;49.34;102649.75;5007140;28;20088;-55
2023/05/30 10:12:42;;;;;;;3.42;1.63;;;;;;;20.30;49.36;102655.16;5006599;28;20121;-55
2023/05/30 10:15:09;;;;;;;2.67;1.65;;;;;;;20.30;49.46;102649.75;5006639;28;20108;-55
2023/05/30 10:17:38;;;;;;;3.10;1.58;;;;;;;20.30;49.28;102647.03;5010107;28;20046;-55
2023/05/30 10:20:07;;;;;;;3.38;1.67;;;;;;;20.30;49.18;102644.34;5005219;28;20057;-55
2023/05/30 10:22:41;;;;;;;3.10;1.67;;;;;;;20.31;49.48;102648.78;5014825;28;20036;-55
2023/05/30 10:25:10;;;;;;;4.70;1.83;;;;;;;20.31;49.46;102646.09;5009452;28;20018;-55
2023/05/30 10:27:42;;;;;;;1.95;1.52;;;;;;;20.31;49.52;102648.78;5016214;28;20037;-55
2023/05/30 10:30:11;;;;;;;2.25;1.63;;;;;;;20.33;49.19;102653.19;5010476;28;20071;-55
2023/05/30 10:32:38;;;;;;;4.78;1.83;;;;;;;20.32;49.42;102652.34;5009627;28;20064;-56
2023/05/30 10:35:13;;;;;;;3.63;1.80;;;;;;;20.33;49.17;102642.38;5011768;28;20034;-55
2023/05/30 10:37:40;;;;;;;4.20;1.50;;;;;;;20.33;49.24;102647.78;5005814;28;20050;-53
2023/05/30 10:40:26;;;;;;;2.95;1.52;;;;;;;20.34;49.54;102636.84;5006229;28;20389;-53
2023/05/30 10:43:04;;;;;;;2.30;1.55;;;;;;;20.34;49.26;102644.97;5006141;28;20048;-53
2023/05/30 10:45:51;;;;;;;6.03;2.25;;;;;;;20.33;49.30;102637.81;5006421;28;20100;-53
2023/05/30 10:48:44;;;;;;;2.65;1.85;;;;;;;20.36;49.17;102631.34;5006887;28;20095;-53
2023/05/30 10:51:11;;;;;;;2.83;1.58;;;;;;;20.36;49.31;102639.44;5009644;28;20029;-53
2023/05/30 10:53:47;;;;;;;3.63;1.50;;;;;;;20.36;49.59;102636.75;5010106;28;20451;-55
2023/05/30 10:56:34;;;;;;;2.45;1.60;;;;;;;20.37;49.18;102635.75;5009698;28;20392;-55
2023/05/30 10:59:00;;;;;;;3.08;1.90;;;;;;;20.36;49.40;102623.22;5007787;28;20451;-55
2023/05/30 11:01:32;;;;;;;3.17;1.70;;;;;;;20.35;49.84;102630.44;5005552;28;20030;-55
2023/05/30 11:03:59;;;;;;;2.78;1.70;;;;;;;20.36;49.43;102618.66;5004518;28;20049;-55
2023/05/30 11:06:26;;;;;;;2.42;1.67;;;;;;;20.37;49.23;102622.22;5008336;28;20042;-55
2023/05/30 11:09:04;;;;;;;3.58;2.05;;;;;;;20.37;49.67;102612.28;5006715;28;20038;-55
2023/05/30 11:11:43;;;;;;;2.25;1.65;;;;;;;20.36;49.73;102613.25;5010113;28;20387;-55
2023/05/30 11:14:10;;;;;;;2.70;1.98;;;;;;;20.37;49.48;102622.22;5005538;28;20564;-55
2023/05/30 11:16:49;;;;;;;2.95;1.77;;;;;;;20.39;49.80;102614.84;5005093;28;20030;-55
2023/05/30 11:19:15;;;;;;;3.03;1.77;;;;;;;20.37;49.65;102601.47;5007182;28;20045;-55
2023/05/30 11:22:00;;;;;;;2.05;1.63;;;;;;;20.41;49.70;102610.16;5006769;28;20029;-55
2023/05/30 11:24:27;;;;;;;3.75;1.83;;;;;;;20.39;49.67;102606.72;5005720;28;20034;-55